Saint Charles, Michigan
Current Conditions -  °F | °C
As of 3:53 AM on Wednesday 28 Jan 2015 (Local Time) from KMBS Reporting Station
Clear Clear  
Wind Chill: -18°   Ceiling: Unl
Heat Index: -12°   Visibility: 10mi
Dew Point: -15°   Wind: 7mph
Humidity: 80%   Direction: 270°W
Pressure: 30.28"   Gusts: NA
Location:  43.3°N, 84.14°W
Report Text: KMBS 280853Z 27006KT 10SM CLR M12/M15 A3028 RMK AO2 SLP266 I3000 T11221150 53007
Loading
Personal Weather Stations






























Interactive Weather Map New forecast layout! Learn more

10-Day Weather Forecast

Advertisements
Track Severe Weather on mobile